Historyczne dane pomiarowe

Dodano dane terminowe – wersja testowa.

Dane z okresu 1951-2019

Wersja bazy: 1.34 [2019-03-16, lista zmian], aktualizacja planowana na 2019-04-15

Dane meteo z obszaru Polski uzyskane na podstawie danych udostępnionych przez Instytut Meteorologii i Gospodarki Wodnej – Państwowy Instytut Badawczy.

 

Wybierz Datę:    

       

TemperaturaWilgotnośćWiatrCiśnienieOpadyŚniegCzas trwania zjawisk
 Stacja t tx tn tng RH VA  wxwx mslp ppp RRR   cm mm wxwxwxwxwxwxwx
1983-08-14 14.9 19.5 10.3 7.9 70.3- 3.3 4.0---- 0.0------------
1983-08-13 15.5 21.8 13.2 12.6 75.5- 5.3 5.7---- 0.9------------
1983-08-12 20.7 26.0 13.7 11.4 61.5- 2.3 4.0---- 9.2------------
1983-08-11 21.0 28.0 13.7 11.3 67.5- 1.0 2.3---- 0.0------------
1983-08-10 21.5 26.7 14.5 12.3 64.8- 2.0 2.3---- 0.0------------
1983-08-09 20.4 26.5 13.5 12.0 76.5- 2.0 2.3---- 0.0------------
1983-08-08 18.6 27.3 14.8 13.3 86.5- 8.0 3.3---- 11.4------------
1983-08-07 17.0 23.0 12.1 9.8 88.0- 8.0 3.0---- 11.8------------
1983-08-06 16.6 21.8 10.7 8.8 72.5- 6.3 2.7---- 0.0------------
1983-08-05 14.5 18.6 10.6 10.6 78.8- 7.0 3.0---- 0.0------------
1983-08-04 12.7 13.5 11.1 11.1 96.0- 8.0 3.7---- 5.0------------
1983-08-03 16.8 24.4 13.1 12.8 94.0- 8.0 5.7---- 16.8------------
1983-08-02 22.8 29.5 19.9 17.3 62.0- 6.3 4.0---- 1.5------------
1983-08-01 23.7 33.6 12.5 9.7 43.5- 0.7 4.3---- 0.0------------
1983-07-31 19.0 27.8 8.3 6.0 58.3- 0.0 1.7---- 0.0------------
1983-07-30 18.0 21.5 14.8 13.8 69.8- 7.7 5.0---- 0.0------------
1983-07-29 18.7 24.0 14.1 11.8 69.8- 4.0 3.7---- 1.9------------
1983-07-28 23.4 32.1 19.4 17.8 55.5- 4.3 4.7---- 0.0------------
1983-07-27 25.2 35.5 11.9 9.6 48.5- 4.0 2.0---- 0.0------------
1983-07-26 21.8 30.8 11.1 8.8 46.8- 0.0 3.0---- 0.0------------
1983-07-25 18.7 26.0 7.9 5.8 63.5- 0.0 2.7---- 0.0------------
1983-07-24 17.3 23.4 12.5 9.7 71.8- 3.3 3.7---- 0.0------------
1983-07-23 19.2 26.0 12.9 11.2 67.3- 3.0 3.7---- 0.0------------
1983-07-22 14.6 17.4 12.3 9.8 85.3- 8.0 3.7---- 2.0------------
1983-07-21 14.7 19.1 9.5 6.9 56.0- 3.3 4.3---- 0.1------------
1983-07-20 15.1 23.3 11.5 10.8 72.5- 7.3 5.0---- 2.3------------
1983-07-19 22.1 29.3 18.0 17.1 69.8- 5.0 4.0---- 6.2------------
1983-07-18 24.5 34.0 13.9 12.2 54.5- 3.3 2.7---- 0.0------------
1983-07-17 20.9 27.3 12.7 10.2 61.0- 1.0 1.7---- 0.0------------
1983-07-16 20.2 25.1 17.2 13.8 73.5- 6.3 4.0---- 1.2------------
1983-07-15 20.5 27.6 11.2 8.4 53.0- 1.3 2.3---- 0.0------------
1983-07-14 21.0 26.2 16.7 16.2 71.5- 6.0 3.7---- 0.0------------
1983-07-13 20.8 25.0 16.7 13.3 71.0- 5.3 3.3---- 0.0------------
1983-07-12 23.9 31.0 18.2 16.3 58.0- 6.0 4.7---- 3.0------------
1983-07-11 23.5 30.5 14.9 11.6 53.0- 4.3 4.0---- 0.0------------
1983-07-10 23.6 31.0 13.2 9.8 50.5- 2.7 3.3---- 0.0------------
1983-07-09 21.9 29.3 11.8 8.6 55.5- 0.3 2.0---- 0.0------------
1983-07-08 21.1 27.9 10.6 6.8 51.3- 0.0 3.3---- 0.0------------
1983-07-07 23.4 29.0 16.2 13.8 51.3- 0.0 4.0---- 0.0------------
1983-07-06 22.6 29.5 11.6 8.7 59.5- 0.0 2.7---- 0.0------------
1983-07-05 19.2 26.3 9.3 6.4 61.3- 1.3 2.3---- 0.0------------
1983-07-04 21.1 27.0 13.7 11.0 60.5- 3.3 3.7---- 0.0------------
1983-07-03 19.4 25.6 11.2 6.6 61.3- 4.0 2.0---- 0.0------------
1983-07-02 18.3 22.7 12.1 9.4 66.5- 2.7 4.0---- 0.0------------
1983-07-01 20.1 26.6 12.5 10.4 62.5- 5.7 2.7---- 1.4------------
1983-06-30 19.9 25.0 13.2 10.1 59.3- 5.0 2.7---- 0.0------------
1983-06-29 14.8 20.5 8.1 6.4 64.5- 5.0 2.7---- 0.0------------
1983-06-28 16.1 21.6 13.4 12.8 65.8- 6.0 3.7---- 0.0------------
1983-06-27 19.6 24.7 15.3 12.8 72.5- 7.7 4.0---- 4.0------------
1983-06-26 20.6 26.3 11.6 8.7 53.3- 1.3 1.7---- 0.0------------
1983-06-25 20.7 29.0 11.8 9.6 57.5- 4.7 2.7---- 0.0------------
1983-06-24 19.4 29.3 6.3 3.7 54.8- 0.0 2.3---- 0.0------------
1983-06-23 16.8 23.2 6.2 3.5 49.8- 0.0 2.7---- 0.0------------
1983-06-22 15.7 21.2 8.4 6.8 50.5- 0.0 4.0---- 0.0------------
1983-06-21 19.1 26.0 10.6 7.9 58.8- 1.0 5.3---- 0.0------------
1983-06-20 19.3 26.0 10.3 8.7 52.3- 0.3 4.0---- 0.0------------
1983-06-19 16.3 23.6 11.0 9.3 70.5- 5.0 5.0---- 0.0------------
1983-06-18 13.6 15.8 10.9 9.5 84.3- 8.0 4.0---- 0.2------------
1983-06-17 13.2 17.0 10.5 9.1 65.0- 6.3 3.3---- 0.9------------
1983-06-16 14.1 18.0 10.6 9.6 59.3- 3.7 5.7---- 0.0------------
396.8 ms

 

Źródłem pochodzenia danych jest Instytut Meteorologii i Gospodarki Wodnej – Państwowy Instytut Badawczy. Dane Instytutu Meteorologii i Gospodarki Wodnej – Państwowego Instytutu Badawczego zostały przetworzone.

Dane źródłowe można odnaleźć na stronie https://dane.imgw.pl